createdAt,value
2018-05-17T00:01:01.410Z,60.53
2018-05-17T00:03:28.144Z,60.47
2018-05-17T00:05:54.940Z,60.42
2018-05-17T00:08:20.771Z,60.29
2018-05-17T00:10:47.440Z,60.28
2018-05-17T00:13:14.219Z,60.22
2018-05-17T00:15:47.132Z,60.27
2018-05-17T00:18:12.931Z,60.37
2018-05-17T00:20:39.535Z,60.60
2018-05-17T00:23:05.332Z,60.57
2018-05-17T00:25:31.973Z,60.40
2018-05-17T00:27:58.764Z,60.50
2018-05-17T00:30:25.480Z,60.59
2018-05-17T00:32:51.283Z,60.63
2018-05-17T00:35:17.856Z,60.83
2018-05-17T00:37:43.656Z,60.71
2018-05-17T00:40:09.460Z,60.80
2018-05-17T00:42:36.120Z,60.68
2018-05-17T00:45:02.848Z,60.69
2018-05-17T00:47:28.648Z,60.44
2018-05-17T00:49:54.445Z,60.30
2018-05-17T00:52:21.185Z,60.31
2018-05-17T00:54:47.967Z,60.38
2018-05-17T00:57:13.761Z,60.29
2018-05-17T00:59:39.595Z,60.46
2018-05-17T01:02:05.411Z,60.33
2018-05-17T01:04:31.212Z,60.47
2018-05-17T01:06:57.796Z,60.57
2018-05-17T01:09:23.644Z,60.41
2018-05-17T01:11:49.444Z,60.59
2018-05-17T01:14:15.251Z,60.65
2018-05-17T01:16:41.958Z,60.41
2018-05-17T01:19:07.764Z,60.49
2018-05-17T01:21:34.497Z,60.27
2018-05-17T01:24:00.296Z,60.38
2018-05-17T01:26:27.061Z,60.51
2018-05-17T01:28:52.869Z,60.53
2018-05-17T01:31:18.672Z,60.28
2018-05-17T01:33:44.464Z,60.18
2018-05-17T01:36:11.084Z,60.54
2018-05-17T01:38:37.836Z,60.39
2018-05-17T01:41:03.637Z,60.52
2018-05-17T01:43:29.444Z,60.40
2018-05-17T01:45:55.252Z,60.31
2018-05-17T01:48:22.032Z,60.46
2018-05-17T01:50:47.840Z,60.41
2018-05-17T01:53:13.640Z,60.37
2018-05-17T01:55:39.434Z,60.22
2018-05-17T01:58:05.236Z,60.52
2018-05-17T02:00:31.036Z,60.37
2018-05-17T02:02:57.004Z,60.37
2018-05-17T02:05:22.808Z,60.40
2018-05-17T02:07:48.692Z,60.25
2018-05-17T02:10:15.323Z,60.56
2018-05-17T02:12:41.200Z,60.96
2018-05-17T02:15:07.005Z,60.42
2018-05-17T02:17:32.804Z,60.66
2018-05-17T02:19:58.604Z,60.68
2018-05-17T02:22:24.400Z,60.90
2018-05-17T02:24:50.197Z,60.93
2018-05-17T02:27:15.992Z,60.83
2018-05-17T02:29:41.787Z,60.99
2018-05-17T02:32:07.589Z,60.64
2018-05-17T02:34:33.472Z,60.81
2018-05-17T02:37:00.217Z,60.38
2018-05-17T02:39:26.016Z,60.59
2018-05-17T02:41:51.814Z,60.47
2018-05-17T02:44:17.676Z,60.63
2018-05-17T02:46:43.476Z,60.65
2018-05-17T02:49:09.296Z,60.36
2018-05-17T02:51:35.116Z,60.15
2018-05-17T02:54:00.965Z,60.39
2018-05-17T02:56:26.756Z,60.63
2018-05-17T02:58:52.556Z,60.30
2018-05-17T03:01:18.354Z,60.67
2018-05-17T03:03:44.153Z,60.84
2018-05-17T03:06:09.956Z,60.66
2018-05-17T03:08:35.770Z,60.67
2018-05-17T03:11:01.577Z,60.55
2018-05-17T03:13:28.401Z,60.28
2018-05-17T03:15:54.199Z,60.01
2018-05-17T03:18:20.913Z,60.15
2018-05-17T03:20:46.712Z,60.29
2018-05-17T03:23:13.401Z,60.51
2018-05-17T03:25:40.161Z,60.17
2018-05-17T03:28:05.996Z,60.58
2018-05-17T03:30:31.837Z,60.52
2018-05-17T03:32:58.581Z,60.37
2018-05-17T03:35:25.363Z,60.24
2018-05-17T03:37:51.165Z,60.40
2018-05-17T03:40:17.009Z,59.99
2018-05-17T03:42:43.612Z,60.11
2018-05-17T03:45:10.428Z,60.15
2018-05-17T03:47:36.268Z,59.89
2018-05-17T03:50:02.064Z,60.13
2018-05-17T03:52:27.920Z,60.07
2018-05-17T03:54:53.720Z,60.77
2018-05-17T03:57:19.524Z,60.44
2018-05-17T03:59:45.324Z,60.38
2018-05-17T04:02:17.346Z,60.41
2018-05-17T04:04:49.423Z,60.68
2018-05-17T04:07:15.257Z,60.67
2018-05-17T04:09:41.056Z,60.04
2018-05-17T04:12:06.849Z,59.95
2018-05-17T04:14:32.647Z,60.15
2018-05-17T04:16:58.618Z,60.03
2018-05-17T04:19:24.417Z,60.47
2018-05-17T04:21:50.219Z,60.67
2018-05-17T04:24:16.012Z,60.50
2018-05-17T04:26:41.818Z,59.66
2018-05-17T04:29:08.483Z,60.13
2018-05-17T04:31:34.284Z,60.06
2018-05-17T04:34:00.080Z,59.76
2018-05-17T04:36:25.881Z,60.37
2018-05-17T04:38:51.688Z,60.39
2018-05-17T04:41:17.532Z,60.50
2018-05-17T04:43:43.327Z,59.89
2018-05-17T04:46:09.989Z,60.45
2018-05-17T04:48:35.845Z,60.33
2018-05-17T04:51:01.648Z,60.27
2018-05-17T04:53:28.397Z,60.44
2018-05-17T04:55:55.144Z,60.10
2018-05-17T04:58:20.983Z,60.49
2018-05-17T05:00:47.623Z,60.28
2018-05-17T05:03:14.477Z,60.38
2018-05-17T05:05:41.123Z,60.17
2018-05-17T05:08:08.037Z,60.63
2018-05-17T05:10:34.612Z,60.24
2018-05-17T05:13:01.404Z,60.41
2018-05-17T05:15:28.180Z,60.29
2018-05-17T05:17:54.024Z,60.51
2018-05-17T05:20:19.827Z,60.54
2018-05-17T05:22:46.588Z,60.75
2018-05-17T05:25:13.478Z,60.78
2018-05-17T05:27:39.227Z,60.57
2018-05-17T05:30:05.028Z,60.47
2018-05-17T05:32:31.811Z,60.54
2018-05-17T05:34:58.616Z,60.52
2018-05-17T05:37:24.452Z,60.36
2018-05-17T05:39:50.251Z,60.42
2018-05-17T05:42:16.088Z,60.48
2018-05-17T05:44:41.894Z,60.39
2018-05-17T05:47:07.796Z,60.24
2018-05-17T05:49:34.597Z,60.19
2018-05-17T05:52:00.372Z,60.36
2018-05-17T05:54:26.232Z,60.37
2018-05-17T05:56:52.036Z,60.43
2018-05-17T05:59:18.644Z,60.42
2018-05-17T06:01:44.450Z,60.55
2018-05-17T06:04:11.108Z,60.85
2018-05-17T06:06:37.851Z,60.43
2018-05-17T06:09:03.668Z,60.15
2018-05-17T06:11:30.415Z,59.21
2018-05-17T06:13:56.321Z,58.53
2018-05-17T06:16:22.160Z,58.09
2018-05-17T06:18:47.959Z,57.95
2018-05-17T06:21:14.744Z,57.32
2018-05-17T06:23:40.627Z,56.75
2018-05-17T06:26:07.155Z,56.81
2018-05-17T06:28:32.956Z,57.09
2018-05-17T06:30:58.760Z,56.69
2018-05-17T06:33:25.488Z,56.50
2018-05-17T06:35:51.288Z,56.85
2018-05-17T06:38:17.980Z,56.64
2018-05-17T06:40:44.558Z,56.98
2018-05-17T06:43:11.396Z,57.23
2018-05-17T06:45:37.194Z,57.21
2018-05-17T06:48:02.991Z,57.30
2018-05-17T06:50:28.788Z,57.20
2018-05-17T06:52:55.479Z,57.38
2018-05-17T06:55:21.365Z,57.46
2018-05-17T06:57:47.201Z,57.51
2018-05-17T07:00:12.996Z,57.41
2018-05-17T07:02:38.800Z,57.50
2018-05-17T07:05:04.601Z,57.54
2018-05-17T07:07:30.433Z,57.43
2018-05-17T07:09:56.237Z,57.63
2018-05-17T07:12:22.041Z,57.64
2018-05-17T07:14:47.839Z,57.71
2018-05-17T07:17:13.628Z,57.70
2018-05-17T07:19:39.432Z,57.77
2018-05-17T07:22:05.232Z,57.75
2018-05-17T07:24:31.037Z,57.79
2018-05-17T07:26:56.838Z,57.68
2018-05-17T07:29:22.640Z,57.73
2018-05-17T07:31:48.444Z,57.78
2018-05-17T07:34:14.240Z,57.82
2018-05-17T07:36:41.032Z,57.82
2018-05-17T07:39:06.844Z,57.85
2018-05-17T07:41:32.648Z,57.95
2018-05-17T07:43:58.448Z,57.84
2018-05-17T07:46:24.249Z,57.90
2018-05-17T07:48:50.053Z,57.80
2018-05-17T07:51:15.857Z,57.80
2018-05-17T07:53:41.664Z,57.94
2018-05-17T07:56:07.463Z,57.95
2018-05-17T07:58:33.308Z,58.00
2018-05-17T08:01:00.073Z,57.92
2018-05-17T08:03:25.952Z,57.83
2018-05-17T08:05:51.744Z,57.88
2018-05-17T08:08:17.600Z,57.91
2018-05-17T08:10:43.399Z,57.76
2018-05-17T08:13:09.236Z,57.93
2018-05-17T08:15:35.072Z,57.88
2018-05-17T08:18:00.964Z,57.87
2018-05-17T08:20:26.904Z,57.62
2018-05-17T08:22:53.636Z,57.79
2018-05-17T08:25:20.384Z,57.98
2018-05-17T08:27:47.176Z,57.81
2018-05-17T08:30:14.007Z,57.86
2018-05-17T08:32:40.641Z,57.88
2018-05-17T08:35:07.490Z,57.96
2018-05-17T08:37:34.161Z,58.06
2018-05-17T08:40:00.752Z,57.84
2018-05-17T08:42:27.560Z,58.01
2018-05-17T08:44:54.352Z,58.00
2018-05-17T08:47:21.112Z,57.89
2018-05-17T08:49:47.852Z,58.01
2018-05-17T08:52:14.601Z,58.15
2018-05-17T08:54:40.401Z,57.92
2018-05-17T08:57:07.212Z,58.12
2018-05-17T08:59:33.981Z,58.00
2018-05-17T09:02:00.772Z,58.07
2018-05-17T09:04:26.647Z,58.08
2018-05-17T09:06:53.308Z,58.11
2018-05-17T09:09:19.152Z,58.01
2018-05-17T09:11:45.846Z,58.07
2018-05-17T09:14:11.647Z,58.01
2018-05-17T09:16:38.424Z,58.04
2018-05-17T09:19:04.225Z,57.99
2018-05-17T09:21:30.029Z,58.23
2018-05-17T09:23:56.612Z,58.20
2018-05-17T09:26:22.412Z,58.26
2018-05-17T09:28:49.072Z,58.15
2018-05-17T09:31:14.869Z,58.22
2018-05-17T09:33:41.568Z,58.24
2018-05-17T09:36:07.400Z,58.23
2018-05-17T09:38:34.136Z,58.37
2018-05-17T09:40:59.978Z,58.43
2018-05-17T09:43:26.572Z,58.11
2018-05-17T09:45:52.442Z,58.27
2018-05-17T09:48:19.132Z,58.23
2018-05-17T09:50:44.933Z,58.34
2018-05-17T09:53:11.672Z,58.58
2018-05-17T09:55:38.296Z,58.49
2018-05-17T09:58:04.132Z,58.45
2018-05-17T10:00:30.924Z,58.35
2018-05-17T10:02:57.624Z,58.33
2018-05-17T10:05:23.422Z,58.22
2018-05-17T10:07:49.216Z,58.34
2018-05-17T10:10:15.862Z,58.18
2018-05-17T10:12:42.532Z,58.12
2018-05-17T10:15:08.342Z,58.20
2018-05-17T10:17:34.180Z,58.29
2018-05-17T10:19:59.976Z,58.24
2018-05-17T10:22:26.635Z,58.36
2018-05-17T10:24:52.432Z,58.43
2018-05-17T10:27:19.060Z,58.46
2018-05-17T10:29:44.857Z,58.49
2018-05-17T10:32:11.734Z,58.31
2018-05-17T10:34:37.536Z,58.51
2018-05-17T10:37:03.336Z,58.46
2018-05-17T10:39:29.136Z,58.46
2018-05-17T10:41:54.936Z,58.26
2018-05-17T10:44:20.732Z,58.31
2018-05-17T10:46:46.533Z,58.47
2018-05-17T10:49:12.327Z,58.56
2018-05-17T10:51:38.996Z,58.51
2018-05-17T10:54:04.836Z,58.49
2018-05-17T10:56:30.720Z,58.89
2018-05-17T10:58:56.520Z,58.40
2018-05-17T11:01:22.326Z,58.44
2018-05-17T11:03:48.163Z,58.54
2018-05-17T11:06:13.959Z,58.41
2018-05-17T11:08:39.758Z,58.46
2018-05-17T11:11:05.560Z,58.51
2018-05-17T11:13:31.362Z,58.51
2018-05-17T11:15:58.148Z,58.38
2018-05-17T11:18:24.940Z,58.62
2018-05-17T11:20:50.748Z,58.50
2018-05-17T11:23:16.556Z,58.51
2018-05-17T11:25:42.366Z,58.66
2018-05-17T11:28:08.208Z,58.62
2018-05-17T11:30:34.010Z,58.41
2018-05-17T11:32:59.891Z,58.39
2018-05-17T11:35:25.645Z,58.42
2018-05-17T11:37:51.449Z,58.66
2018-05-17T11:40:17.261Z,58.38
2018-05-17T11:42:44.029Z,58.57
2018-05-17T11:45:10.788Z,58.67
2018-05-17T11:47:37.548Z,58.86
2018-05-17T11:50:04.352Z,58.78
2018-05-17T11:52:30.232Z,58.62
2018-05-17T11:54:56.852Z,58.64
2018-05-17T11:57:22.702Z,58.60
2018-05-17T11:59:49.379Z,58.76
2018-05-17T12:02:15.253Z,58.80
2018-05-17T12:04:41.564Z,58.70
2018-05-17T12:07:07.364Z,58.82
2018-05-17T12:09:34.083Z,58.70
2018-05-17T12:12:00.803Z,58.76
2018-05-17T12:14:27.596Z,58.92
2018-05-17T12:16:54.461Z,58.77
2018-05-17T12:19:21.191Z,58.81
2018-05-17T12:21:47.962Z,58.81
2018-05-17T12:24:14.704Z,58.70
2018-05-17T12:26:41.445Z,58.84
2018-05-17T12:29:08.183Z,58.89
2018-05-17T12:31:34.030Z,58.95
2018-05-17T12:34:00.668Z,58.81
2018-05-17T12:36:26.464Z,58.91
2018-05-17T12:38:53.199Z,58.89
2018-05-17T12:41:18.996Z,58.83
2018-05-17T12:43:45.673Z,58.87
2018-05-17T12:46:11.468Z,58.96
2018-05-17T12:48:38.277Z,58.88
2018-05-17T12:51:04.076Z,58.85
2018-05-17T12:53:30.552Z,58.92
2018-05-17T12:55:56.404Z,58.83
2018-05-17T12:58:22.200Z,58.67
2018-05-17T13:00:48.828Z,58.66
2018-05-17T13:03:15.606Z,58.85
2018-05-17T13:05:41.457Z,58.78
2018-05-17T13:08:07.253Z,58.59
2018-05-17T13:10:33.940Z,58.60
2018-05-17T13:12:59.848Z,58.57
2018-05-17T13:15:25.648Z,58.66
2018-05-17T13:17:51.488Z,58.71
2018-05-17T13:20:18.248Z,58.73
2018-05-17T13:22:44.092Z,58.57
2018-05-17T13:25:10.712Z,58.67
2018-05-17T13:27:37.537Z,58.81
2018-05-17T13:30:04.237Z,58.85
2018-05-17T13:32:30.028Z,58.83
2018-05-17T13:34:56.802Z,58.85
2018-05-17T13:37:23.724Z,58.98
2018-05-17T13:39:50.452Z,59.01
2018-05-17T13:42:17.163Z,58.86
2018-05-17T13:44:43.000Z,58.86
2018-05-17T13:47:09.605Z,58.91
2018-05-17T13:49:36.373Z,58.80
2018-05-17T13:52:03.116Z,58.87
2018-05-17T13:54:28.913Z,58.87
2018-05-17T13:56:55.540Z,58.77
2018-05-17T13:59:22.258Z,58.90
2018-05-17T14:01:48.056Z,58.88
2018-05-17T14:04:13.898Z,58.96
2018-05-17T14:06:39.688Z,58.95
2018-05-17T14:09:06.568Z,58.99
2018-05-17T14:11:32.368Z,58.89
2018-05-17T14:13:59.096Z,58.83
2018-05-17T14:16:25.804Z,59.15
2018-05-17T14:18:52.523Z,59.05
2018-05-17T14:21:18.365Z,59.07
2018-05-17T14:23:45.020Z,58.87
2018-05-17T14:26:11.821Z,58.66
2018-05-17T14:28:38.538Z,58.79
2018-05-17T14:31:04.333Z,59.03
2018-05-17T14:33:30.134Z,59.04
2018-05-17T14:35:56.837Z,59.02
2018-05-17T14:38:22.633Z,59.02
2018-05-17T14:40:48.466Z,58.90
2018-05-17T14:43:14.359Z,58.99
2018-05-17T14:45:40.166Z,59.10
2018-05-17T14:48:06.804Z,58.96
2018-05-17T14:50:32.600Z,58.98
2018-05-17T14:52:59.348Z,58.92
2018-05-17T14:55:25.140Z,58.90
2018-05-17T14:57:50.931Z,59.00
2018-05-17T15:00:16.724Z,58.95
2018-05-17T15:02:42.524Z,58.85
2018-05-17T15:05:08.320Z,58.75
2018-05-17T15:07:34.117Z,58.93
2018-05-17T15:09:59.928Z,58.74
2018-05-17T15:12:25.727Z,58.89
2018-05-17T15:14:51.521Z,58.87
2018-05-17T15:17:17.320Z,58.92
2018-05-17T15:19:43.112Z,58.81
2018-05-17T15:22:08.908Z,58.75
2018-05-17T15:24:34.755Z,58.73
2018-05-17T15:27:00.539Z,58.84
2018-05-17T15:29:26.341Z,58.77
2018-05-17T15:31:52.150Z,58.99
2018-05-17T15:34:18.917Z,58.68
2018-05-17T15:36:44.748Z,58.92
2018-05-17T15:39:10.545Z,58.75
2018-05-17T15:41:36.395Z,58.82
2018-05-17T15:44:02.184Z,58.85
2018-05-17T15:46:28.077Z,58.88
2018-05-17T15:48:53.871Z,58.88
2018-05-17T15:51:19.666Z,58.76
2018-05-17T15:53:45.466Z,59.05
2018-05-17T15:56:11.265Z,59.12
2018-05-17T15:58:37.074Z,59.09
2018-05-17T16:01:02.916Z,59.15
2018-05-17T16:03:28.802Z,59.05
2018-05-17T16:05:54.656Z,59.18
2018-05-17T16:08:20.456Z,59.21
2018-05-17T16:10:46.253Z,59.02
2018-05-17T16:13:12.052Z,59.17
2018-05-17T16:15:37.951Z,59.16
2018-05-17T16:18:03.740Z,59.28
2018-05-17T16:20:29.537Z,59.04
2018-05-17T16:22:55.464Z,59.12
2018-05-17T16:25:22.137Z,59.09
2018-05-17T16:27:47.977Z,59.15
2018-05-17T16:30:13.784Z,59.30
2018-05-17T16:32:39.683Z,59.30
2018-05-17T16:35:05.419Z,59.26
2018-05-17T16:37:31.220Z,59.12
2018-05-17T16:39:57.814Z,59.23
2018-05-17T16:42:23.616Z,59.48
2018-05-17T16:44:50.416Z,59.41
2018-05-17T16:47:17.127Z,59.40
2018-05-17T16:49:42.920Z,59.46
2018-05-17T16:52:09.740Z,59.41
2018-05-17T16:54:35.581Z,59.40
2018-05-17T16:57:01.382Z,59.32
2018-05-17T16:59:27.185Z,59.21
2018-05-17T17:01:53.604Z,59.23
2018-05-17T17:04:19.420Z,59.43
2018-05-17T17:06:45.345Z,59.51
2018-05-17T17:09:11.093Z,59.55
2018-05-17T17:11:36.979Z,59.53
2018-05-17T17:14:02.799Z,59.63
2018-05-17T17:16:28.620Z,59.67
2018-05-17T17:18:54.421Z,59.63
2018-05-17T17:21:20.265Z,59.46
2018-05-17T17:23:46.233Z,59.49
2018-05-17T17:26:11.985Z,59.37
2018-05-17T17:28:37.785Z,59.60
2018-05-17T17:31:04.537Z,59.49
2018-05-17T17:33:30.385Z,59.55
2018-05-17T17:35:56.185Z,59.48
2018-05-17T17:38:23.012Z,59.47
2018-05-17T17:40:49.740Z,59.45
2018-05-17T17:43:15.543Z,59.58
2018-05-17T17:45:41.368Z,59.54
2018-05-17T17:48:07.168Z,59.61
2018-05-17T17:50:32.968Z,59.59
2018-05-17T17:52:58.886Z,59.58
2018-05-17T17:55:25.601Z,59.26
2018-05-17T17:57:51.405Z,59.27
2018-05-17T18:00:17.269Z,59.46
2018-05-17T18:02:43.068Z,59.40
2018-05-17T18:05:09.859Z,59.53
2018-05-17T18:07:35.621Z,59.59
2018-05-17T18:10:01.468Z,59.43
2018-05-17T18:12:27.273Z,59.49
2018-05-17T18:14:53.077Z,59.55
2018-05-17T18:17:19.896Z,59.66
2018-05-17T18:19:46.585Z,59.82
2018-05-17T18:22:12.386Z,59.62
2018-05-17T18:24:39.069Z,59.68
2018-05-17T18:27:05.407Z,59.46
2018-05-17T18:29:32.445Z,59.54
2018-05-17T18:31:58.357Z,59.54
2018-05-17T18:34:24.786Z,59.72
2018-05-17T18:36:50.988Z,59.80
2018-05-17T18:39:18.249Z,59.81
2018-05-17T18:41:45.160Z,59.73
2018-05-17T18:44:11.957Z,59.87
2018-05-17T18:46:39.935Z,59.65
2018-05-17T18:49:06.075Z,59.80
2018-05-17T18:51:32.660Z,59.81
2018-05-17T18:53:58.685Z,60.10
2018-05-17T18:56:24.480Z,60.03
2018-05-17T18:58:50.460Z,60.00
2018-05-17T19:01:16.284Z,59.70
2018-05-17T19:03:42.349Z,59.82
2018-05-17T19:06:08.701Z,59.92
2018-05-17T19:08:34.798Z,59.91
2018-05-17T19:11:00.708Z,59.78
2018-05-17T19:13:26.724Z,59.77
2018-05-17T19:15:52.640Z,59.81
2018-05-17T19:18:18.585Z,59.92
2018-05-17T19:20:44.579Z,59.89
2018-05-17T19:23:10.562Z,59.90
2018-05-17T19:25:36.654Z,60.09
2018-05-17T19:28:02.756Z,59.80
2018-05-17T19:30:28.671Z,59.93
2018-05-17T19:32:54.574Z,60.02
2018-05-17T19:35:20.512Z,60.09
2018-05-17T19:37:46.364Z,59.99
2018-05-17T19:40:12.275Z,60.09
2018-05-17T19:42:38.290Z,60.20
2018-05-17T19:45:04.264Z,60.08
2018-05-17T19:47:30.128Z,60.09
2018-05-17T19:49:56.069Z,60.13
2018-05-17T19:52:22.928Z,60.02
2018-05-17T19:54:49.600Z,60.05
2018-05-17T19:57:16.601Z,60.14
2018-05-17T19:59:43.062Z,60.05
2018-05-17T20:02:09.060Z,60.03
2018-05-17T20:04:34.923Z,60.04
2018-05-17T20:07:00.893Z,59.82
2018-05-17T20:09:26.859Z,59.66
2018-05-17T20:11:53.783Z,59.23
2018-05-17T20:14:20.532Z,58.67
2018-05-17T20:16:47.342Z,58.03
2018-05-17T20:19:13.198Z,57.00
2018-05-17T20:21:39.004Z,57.61
2018-05-17T20:24:04.956Z,57.39
2018-05-17T20:26:30.789Z,57.00
2018-05-17T20:28:56.628Z,57.23
2018-05-17T20:31:22.511Z,57.43
2018-05-17T20:33:48.312Z,57.44
2018-05-17T20:36:14.114Z,57.39
2018-05-17T20:38:40.860Z,57.31
2018-05-17T20:41:06.685Z,57.29
2018-05-17T20:43:32.640Z,57.35
2018-05-17T20:45:58.564Z,57.40
2018-05-17T20:48:25.285Z,57.61
2018-05-17T20:50:51.220Z,57.33
2018-05-17T20:53:17.896Z,57.51
2018-05-17T20:55:43.733Z,57.51
2018-05-17T20:58:10.480Z,57.38
2018-05-17T21:00:36.360Z,57.51
2018-05-17T21:03:02.273Z,57.67
2018-05-17T21:05:28.100Z,57.62
2018-05-17T21:07:53.989Z,57.70
2018-05-17T21:10:19.787Z,57.72
2018-05-17T21:12:45.776Z,57.69
2018-05-17T21:15:11.737Z,57.75
2018-05-17T21:17:37.543Z,57.79
2018-05-17T21:20:04.227Z,57.74
2018-05-17T21:22:30.996Z,57.32
2018-05-17T21:24:56.821Z,57.54
2018-05-17T21:27:22.826Z,57.44
2018-05-17T21:29:49.485Z,57.37
2018-05-17T21:32:16.252Z,57.68
2018-05-17T21:34:42.049Z,57.70
2018-05-17T21:37:07.854Z,57.89
2018-05-17T21:39:33.734Z,57.71
2018-05-17T21:41:59.640Z,57.57
2018-05-17T21:44:25.442Z,57.50
2018-05-17T21:46:51.245Z,57.95
2018-05-17T21:49:17.053Z,57.92
2018-05-17T21:51:42.918Z,57.80
2018-05-17T21:54:08.716Z,57.80
2018-05-17T21:56:34.509Z,58.01
2018-05-17T21:59:00.309Z,57.93
2018-05-17T22:01:26.120Z,57.93
2018-05-17T22:03:51.920Z,58.25
2018-05-17T22:06:18.707Z,57.95
2018-05-17T22:08:44.516Z,58.22
2018-05-17T22:11:10.311Z,58.01
2018-05-17T22:13:37.139Z,58.04
2018-05-17T22:16:02.961Z,57.53
2018-05-17T22:18:28.854Z,57.84
2018-05-17T22:20:55.664Z,57.64
2018-05-17T22:23:21.472Z,57.75
2018-05-17T22:25:47.276Z,58.11
2018-05-17T22:28:13.082Z,57.90
2018-05-17T22:30:38.881Z,58.21
2018-05-17T22:33:04.681Z,58.95
2018-05-17T22:35:30.484Z,58.20
2018-05-17T22:37:56.288Z,58.16
2018-05-17T22:40:22.089Z,58.57
2018-05-17T22:42:47.899Z,58.19
2018-05-17T22:45:13.692Z,57.50
2018-05-17T22:47:39.541Z,58.63
2018-05-17T22:50:06.325Z,58.66
2018-05-17T22:52:33.092Z,58.17
2018-05-17T22:54:59.824Z,58.66
2018-05-17T22:57:31.873Z,58.09
2018-05-17T22:59:58.700Z,58.44
2018-05-17T23:02:24.492Z,58.74
2018-05-17T23:04:50.291Z,58.86
2018-05-17T23:07:16.100Z,58.20
2018-05-17T23:09:41.905Z,58.41
2018-05-17T23:12:07.704Z,57.75
2018-05-17T23:14:33.564Z,58.09
2018-05-17T23:16:59.368Z,58.71
2018-05-17T23:19:25.210Z,58.92
2018-05-17T23:21:51.796Z,58.59
2018-05-17T23:24:18.700Z,59.38
2018-05-17T23:26:44.500Z,59.54
2018-05-17T23:29:10.344Z,59.06
2018-05-17T23:31:36.152Z,58.14
2018-05-17T23:34:01.967Z,57.87
2018-05-17T23:36:27.788Z,59.19
2018-05-17T23:38:53.589Z,58.63
2018-05-17T23:44:13.388Z,58.31
2018-05-17T23:46:39.188Z,59.05
2018-05-17T23:49:04.993Z,58.08
2018-05-17T23:51:30.833Z,58.33
2018-05-17T23:53:56.631Z,58.45
2018-05-17T23:56:22.429Z,58.11
2018-05-17T23:58:48.232Z,57.66
